sensor_id;sensor_type;location;lat;lon;timestamp;temperature;humidity
16999;DHT22;10211;49.476;11.010;2023-11-21T00:02:16;7.50;99.90
16999;DHT22;10211;49.476;11.010;2023-11-21T00:04:44;7.50;99.90
16999;DHT22;10211;49.476;11.010;2023-11-21T00:07:11;7.50;99.90
16999;DHT22;10211;49.476;11.010;2023-11-21T00:09:38;7.50;99.90
16999;DHT22;10211;49.476;11.010;2023-11-21T00:12:04;7.50;99.90
16999;DHT22;10211;49.476;11.010;2023-11-21T00:14:31;7.50;99.90
16999;DHT22;10211;49.476;11.010;2023-11-21T00:16:59;7.50;99.90
16999;DHT22;10211;49.476;11.010;2023-11-21T00:19:26;7.60;99.90
16999;DHT22;10211;49.476;11.010;2023-11-21T00:21:54;7.60;99.90
16999;DHT22;10211;49.476;11.010;2023-11-21T00:24:20;7.60;99.90
16999;DHT22;10211;49.476;11.010;2023-11-21T00:26:47;7.60;99.90
16999;DHT22;10211;49.476;11.010;2023-11-21T00:29:14;7.60;99.90
16999;DHT22;10211;49.476;11.010;2023-11-21T00:31:43;7.60;99.90
16999;DHT22;10211;49.476;11.010;2023-11-21T00:34:11;7.60;99.90
16999;DHT22;10211;49.476;11.010;2023-11-21T00:36:37;7.60;99.90
16999;DHT22;10211;49.476;11.010;2023-11-21T00:39:05;7.60;99.90
16999;DHT22;10211;49.476;11.010;2023-11-21T00:41:33;7.80;99.90
16999;DHT22;10211;49.476;11.010;2023-11-21T00:44:00;7.60;99.90
16999;DHT22;10211;49.476;11.010;2023-11-21T00:46:27;7.60;99.90
16999;DHT22;10211;49.476;11.010;2023-11-21T00:48:54;8.00;99.90
16999;DHT22;10211;49.476;11.010;2023-11-21T00:51:21;7.60;99.90
16999;DHT22;10211;49.476;11.010;2023-11-21T00:53:48;7.50;99.90
16999;DHT22;10211;49.476;11.010;2023-11-21T00:56:16;7.50;99.90
16999;DHT22;10211;49.476;11.010;2023-11-21T00:58:43;7.50;99.90
16999;DHT22;10211;49.476;11.010;2023-11-21T01:01:15;7.50;99.90
16999;DHT22;10211;49.476;11.010;2023-11-21T01:03:41;7.60;99.90
16999;DHT22;10211;49.476;11.010;2023-11-21T01:06:08;7.60;99.90
16999;DHT22;10211;49.476;11.010;2023-11-21T01:08:35;7.60;99.90
16999;DHT22;10211;49.476;11.010;2023-11-21T01:11:02;7.60;99.90
16999;DHT22;10211;49.476;11.010;2023-11-21T01:13:30;7.60;99.90
16999;DHT22;10211;49.476;11.010;2023-11-21T01:15:57;7.60;99.90
16999;DHT22;10211;49.476;11.010;2023-11-21T01:18:23;7.60;99.90
16999;DHT22;10211;49.476;11.010;2023-11-21T01:20:51;7.60;99.90
16999;DHT22;10211;49.476;11.010;2023-11-21T01:23:18;7.70;99.90
16999;DHT22;10211;49.476;11.010;2023-11-21T01:25:45;7.70;99.90
16999;DHT22;10211;49.476;11.010;2023-11-21T01:28:12;7.70;99.90
16999;DHT22;10211;49.476;11.010;2023-11-21T01:30:40;7.70;99.90
16999;DHT22;10211;49.476;11.010;2023-11-21T01:33:07;7.70;99.90
16999;DHT22;10211;49.476;11.010;2023-11-21T01:35:34;7.70;99.90
16999;DHT22;10211;49.476;11.010;2023-11-21T01:38:01;7.70;99.90
16999;DHT22;10211;49.476;11.010;2023-11-21T01:40:29;7.70;99.90
16999;DHT22;10211;49.476;11.010;2023-11-21T01:42:56;7.70;99.90
16999;DHT22;10211;49.476;11.010;2023-11-21T01:45:23;7.60;99.90
16999;DHT22;10211;49.476;11.010;2023-11-21T01:47:52;7.70;99.90
16999;DHT22;10211;49.476;11.010;2023-11-21T01:50:19;7.60;99.90
16999;DHT22;10211;49.476;11.010;2023-11-21T01:52:47;7.60;99.90
16999;DHT22;10211;49.476;11.010;2023-11-21T01:55:16;7.60;99.90
16999;DHT22;10211;49.476;11.010;2023-11-21T01:57:45;7.60;99.90
16999;DHT22;10211;49.476;11.010;2023-11-21T02:00:13;7.60;99.90
16999;DHT22;10211;49.476;11.010;2023-11-21T02:02:42;7.60;99.90
16999;DHT22;10211;49.476;11.010;2023-11-21T02:05:10;7.60;99.90
16999;DHT22;10211;49.476;11.010;2023-11-21T02:07:38;7.60;99.90
16999;DHT22;10211;49.476;11.010;2023-11-21T02:10:06;7.90;99.90
16999;DHT22;10211;49.476;11.010;2023-11-21T02:12:34;7.60;99.90
16999;DHT22;10211;49.476;11.010;2023-11-21T02:15:02;7.60;99.90
16999;DHT22;10211;49.476;11.010;2023-11-21T02:17:30;7.60;99.90
16999;DHT22;10211;49.476;11.010;2023-11-21T02:19:58;7.70;99.90
16999;DHT22;10211;49.476;11.010;2023-11-21T02:22:27;7.70;99.90
16999;DHT22;10211;49.476;11.010;2023-11-21T02:24:57;7.70;99.90
16999;DHT22;10211;49.476;11.010;2023-11-21T02:27:24;7.70;99.90
16999;DHT22;10211;49.476;11.010;2023-11-21T02:29:52;7.60;99.90
16999;DHT22;10211;49.476;11.010;2023-11-21T02:32:19;7.70;99.90
16999;DHT22;10211;49.476;11.010;2023-11-21T02:34:48;7.70;99.90
16999;DHT22;10211;49.476;11.010;2023-11-21T02:37:15;7.60;99.90
16999;DHT22;10211;49.476;11.010;2023-11-21T02:39:42;7.60;99.90
16999;DHT22;10211;49.476;11.010;2023-11-21T02:42:10;7.70;99.90
16999;DHT22;10211;49.476;11.010;2023-11-21T02:44:36;7.60;99.90
16999;DHT22;10211;49.476;11.010;2023-11-21T02:47:04;7.60;99.90
16999;DHT22;10211;49.476;11.010;2023-11-21T02:49:30;7.60;99.90
16999;DHT22;10211;49.476;11.010;2023-11-21T02:51:57;7.60;99.90
16999;DHT22;10211;49.476;11.010;2023-11-21T02:54:24;7.60;99.90
16999;DHT22;10211;49.476;11.010;2023-11-21T02:56:52;7.60;99.90
16999;DHT22;10211;49.476;11.010;2023-11-21T02:59:20;7.60;99.90
16999;DHT22;10211;49.476;11.010;2023-11-21T03:01:47;7.60;99.90
16999;DHT22;10211;49.476;11.010;2023-11-21T03:04:15;7.60;99.90
16999;DHT22;10211;49.476;11.010;2023-11-21T03:06:43;7.60;99.90
16999;DHT22;10211;49.476;11.010;2023-11-21T03:09:10;7.70;99.90
16999;DHT22;10211;49.476;11.010;2023-11-21T03:11:38;7.60;99.90
16999;DHT22;10211;49.476;11.010;2023-11-21T03:14:05;7.70;99.90
16999;DHT22;10211;49.476;11.010;2023-11-21T03:16:33;7.70;99.90
16999;DHT22;10211;49.476;11.010;2023-11-21T03:19:00;7.70;99.90
16999;DHT22;10211;49.476;11.010;2023-11-21T03:21:27;7.70;99.90
16999;DHT22;10211;49.476;11.010;2023-11-21T03:23:54;7.70;99.90
16999;DHT22;10211;49.476;11.010;2023-11-21T03:26:21;7.70;99.90
16999;DHT22;10211;49.476;11.010;2023-11-21T03:28:48;7.70;99.90
16999;DHT22;10211;49.476;11.010;2023-11-21T03:31:15;7.70;99.90
16999;DHT22;10211;49.476;11.010;2023-11-21T03:33:45;7.60;99.90
16999;DHT22;10211;49.476;11.010;2023-11-21T03:36:12;7.70;99.90
16999;DHT22;10211;49.476;11.010;2023-11-21T03:38:40;7.70;99.90
16999;DHT22;10211;49.476;11.010;2023-11-21T03:41:07;7.60;99.90
16999;DHT22;10211;49.476;11.010;2023-11-21T03:43:35;7.70;99.90
16999;DHT22;10211;49.476;11.010;2023-11-21T03:46:02;7.70;99.90
16999;DHT22;10211;49.476;11.010;2023-11-21T03:48:29;7.60;99.90
16999;DHT22;10211;49.476;11.010;2023-11-21T03:50:57;7.60;99.90
16999;DHT22;10211;49.476;11.010;2023-11-21T03:53:24;7.60;99.90
16999;DHT22;10211;49.476;11.010;2023-11-21T03:55:50;7.60;99.90
16999;DHT22;10211;49.476;11.010;2023-11-21T03:58:17;7.60;99.90
16999;DHT22;10211;49.476;11.010;2023-11-21T04:00:44;7.60;99.90
16999;DHT22;10211;49.476;11.010;2023-11-21T04:03:11;7.60;99.90
16999;DHT22;10211;49.476;11.010;2023-11-21T04:05:39;7.60;99.90
16999;DHT22;10211;49.476;11.010;2023-11-21T04:08:08;7.60;99.90
16999;DHT22;10211;49.476;11.010;2023-11-21T04:10:34;7.60;99.90
16999;DHT22;10211;49.476;11.010;2023-11-21T04:13:01;7.60;99.90
16999;DHT22;10211;49.476;11.010;2023-11-21T04:15:28;7.60;99.90
16999;DHT22;10211;49.476;11.010;2023-11-21T04:17:54;7.60;99.90
16999;DHT22;10211;49.476;11.010;2023-11-21T04:20:22;7.60;99.90
16999;DHT22;10211;49.476;11.010;2023-11-21T04:22:49;7.60;99.90
16999;DHT22;10211;49.476;11.010;2023-11-21T04:25:17;7.60;99.90
16999;DHT22;10211;49.476;11.010;2023-11-21T04:27:44;7.60;99.90
16999;DHT22;10211;49.476;11.010;2023-11-21T04:30:12;7.60;99.90
16999;DHT22;10211;49.476;11.010;2023-11-21T04:32:39;7.50;99.90
16999;DHT22;10211;49.476;11.010;2023-11-21T04:35:08;7.50;99.90
16999;DHT22;10211;49.476;11.010;2023-11-21T04:37:35;7.50;99.90
16999;DHT22;10211;49.476;11.010;2023-11-21T04:40:02;7.50;99.90
16999;DHT22;10211;49.476;11.010;2023-11-21T04:42:33;7.50;99.90
16999;DHT22;10211;49.476;11.010;2023-11-21T04:45:00;7.40;99.90
16999;DHT22;10211;49.476;11.010;2023-11-21T04:47:31;7.40;99.90
16999;DHT22;10211;49.476;11.010;2023-11-21T04:49:58;7.40;99.90
16999;DHT22;10211;49.476;11.010;2023-11-21T04:52:24;7.40;99.90
16999;DHT22;10211;49.476;11.010;2023-11-21T04:54:51;7.40;99.90
16999;DHT22;10211;49.476;11.010;2023-11-21T04:57:20;7.40;99.90
16999;DHT22;10211;49.476;11.010;2023-11-21T04:59:48;7.40;99.90
16999;DHT22;10211;49.476;11.010;2023-11-21T05:02:15;7.40;99.90
16999;DHT22;10211;49.476;11.010;2023-11-21T05:04:44;7.50;99.90
16999;DHT22;10211;49.476;11.010;2023-11-21T05:07:11;7.50;99.90
16999;DHT22;10211;49.476;11.010;2023-11-21T05:09:41;7.50;99.90
16999;DHT22;10211;49.476;11.010;2023-11-21T05:12:09;7.50;99.90
16999;DHT22;10211;49.476;11.010;2023-11-21T05:14:36;7.50;99.90
16999;DHT22;10211;49.476;11.010;2023-11-21T05:17:04;7.50;99.90
16999;DHT22;10211;49.476;11.010;2023-11-21T05:19:31;7.50;99.90
16999;DHT22;10211;49.476;11.010;2023-11-21T05:21:58;7.50;99.90
16999;DHT22;10211;49.476;11.010;2023-11-21T05:24:26;7.50;99.90
16999;DHT22;10211;49.476;11.010;2023-11-21T05:26:54;7.50;99.90
16999;DHT22;10211;49.476;11.010;2023-11-21T05:29:21;7.60;99.90
16999;DHT22;10211;49.476;11.010;2023-11-21T05:31:48;7.60;99.90
16999;DHT22;10211;49.476;11.010;2023-11-21T05:34:16;7.50;99.90
16999;DHT22;10211;49.476;11.010;2023-11-21T05:36:43;7.60;99.90
16999;DHT22;10211;49.476;11.010;2023-11-21T05:39:11;7.60;99.90
16999;DHT22;10211;49.476;11.010;2023-11-21T05:41:38;7.50;99.90
16999;DHT22;10211;49.476;11.010;2023-11-21T05:44:05;7.60;99.90
16999;DHT22;10211;49.476;11.010;2023-11-21T05:46:31;7.60;99.90
16999;DHT22;10211;49.476;11.010;2023-11-21T05:48:58;7.60;99.90
16999;DHT22;10211;49.476;11.010;2023-11-21T05:51:26;7.60;99.90
16999;DHT22;10211;49.476;11.010;2023-11-21T05:53:53;7.60;99.90
16999;DHT22;10211;49.476;11.010;2023-11-21T05:56:20;7.60;99.90
16999;DHT22;10211;49.476;11.010;2023-11-21T05:58:47;7.70;99.90
16999;DHT22;10211;49.476;11.010;2023-11-21T06:01:14;7.60;99.90
16999;DHT22;10211;49.476;11.010;2023-11-21T06:03:40;7.60;99.90
16999;DHT22;10211;49.476;11.010;2023-11-21T06:06:08;7.70;99.90
16999;DHT22;10211;49.476;11.010;2023-11-21T06:08:36;7.70;99.90
16999;DHT22;10211;49.476;11.010;2023-11-21T06:11:03;7.70;99.90
16999;DHT22;10211;49.476;11.010;2023-11-21T06:13:29;7.70;99.90
16999;DHT22;10211;49.476;11.010;2023-11-21T06:15:56;7.70;99.90
16999;DHT22;10211;49.476;11.010;2023-11-21T06:18:23;7.70;99.90
16999;DHT22;10211;49.476;11.010;2023-11-21T06:20:49;7.70;99.90
16999;DHT22;10211;49.476;11.010;2023-11-21T06:23:18;7.70;99.90
16999;DHT22;10211;49.476;11.010;2023-11-21T06:25:46;7.70;99.90
16999;DHT22;10211;49.476;11.010;2023-11-21T06:28:14;7.70;99.90
16999;DHT22;10211;49.476;11.010;2023-11-21T06:30:43;7.70;99.90
16999;DHT22;10211;49.476;11.010;2023-11-21T06:33:10;7.70;99.90
16999;DHT22;10211;49.476;11.010;2023-11-21T06:35:37;7.70;99.90
16999;DHT22;10211;49.476;11.010;2023-11-21T06:38:05;7.70;99.90
16999;DHT22;10211;49.476;11.010;2023-11-21T06:40:32;7.70;99.90
16999;DHT22;10211;49.476;11.010;2023-11-21T06:43:00;7.70;99.90
16999;DHT22;10211;49.476;11.010;2023-11-21T06:45:27;8.00;99.90
16999;DHT22;10211;49.476;11.010;2023-11-21T06:47:54;7.70;99.90
16999;DHT22;10211;49.476;11.010;2023-11-21T06:50:20;7.70;99.90
16999;DHT22;10211;49.476;11.010;2023-11-21T06:52:47;7.70;99.90
16999;DHT22;10211;49.476;11.010;2023-11-21T06:55:15;7.70;99.90
16999;DHT22;10211;49.476;11.010;2023-11-21T06:57:42;7.80;99.90
16999;DHT22;10211;49.476;11.010;2023-11-21T07:00:12;7.70;99.90
16999;DHT22;10211;49.476;11.010;2023-11-21T07:02:39;7.80;99.90
16999;DHT22;10211;49.476;11.010;2023-11-21T07:05:06;7.80;99.90
16999;DHT22;10211;49.476;11.010;2023-11-21T07:07:33;7.80;99.90
16999;DHT22;10211;49.476;11.010;2023-11-21T07:10:01;7.80;99.90
16999;DHT22;10211;49.476;11.010;2023-11-21T07:12:28;7.80;99.90
16999;DHT22;10211;49.476;11.010;2023-11-21T07:14:55;7.90;99.90
16999;DHT22;10211;49.476;11.010;2023-11-21T07:17:23;7.90;99.90
16999;DHT22;10211;49.476;11.010;2023-11-21T07:19:50;7.90;99.90
16999;DHT22;10211;49.476;11.010;2023-11-21T07:22:17;8.00;99.90
16999;DHT22;10211;49.476;11.010;2023-11-21T07:24:48;8.00;99.90
16999;DHT22;10211;49.476;11.010;2023-11-21T07:27:15;8.00;99.90
16999;DHT22;10211;49.476;11.010;2023-11-21T07:29:41;8.00;99.90
16999;DHT22;10211;49.476;11.010;2023-11-21T07:32:08;8.10;99.90
16999;DHT22;10211;49.476;11.010;2023-11-21T07:34:37;8.10;99.90
16999;DHT22;10211;49.476;11.010;2023-11-21T07:37:03;8.20;99.90
16999;DHT22;10211;49.476;11.010;2023-11-21T07:39:30;8.20;99.90
16999;DHT22;10211;49.476;11.010;2023-11-21T07:41:57;8.30;99.90
16999;DHT22;10211;49.476;11.010;2023-11-21T07:44:23;8.40;99.90
16999;DHT22;10211;49.476;11.010;2023-11-21T07:46:51;8.40;99.90
16999;DHT22;10211;49.476;11.010;2023-11-21T07:49:22;8.50;99.90
16999;DHT22;10211;49.476;11.010;2023-11-21T07:51:50;8.50;99.90
16999;DHT22;10211;49.476;11.010;2023-11-21T07:54:17;8.60;99.90
16999;DHT22;10211;49.476;11.010;2023-11-21T07:56:44;8.70;99.90
16999;DHT22;10211;49.476;11.010;2023-11-21T07:59:11;8.70;99.90
16999;DHT22;10211;49.476;11.010;2023-11-21T08:01:38;8.80;99.90
16999;DHT22;10211;49.476;11.010;2023-11-21T08:04:05;8.80;99.90
16999;DHT22;10211;49.476;11.010;2023-11-21T08:06:33;8.80;99.90
16999;DHT22;10211;49.476;11.010;2023-11-21T08:09:02;8.90;99.90
16999;DHT22;10211;49.476;11.010;2023-11-21T08:11:28;8.90;99.90
16999;DHT22;10211;49.476;11.010;2023-11-21T08:13:57;8.90;99.90
16999;DHT22;10211;49.476;11.010;2023-11-21T08:16:24;9.00;99.90
16999;DHT22;10211;49.476;11.010;2023-11-21T08:18:51;9.00;99.90
16999;DHT22;10211;49.476;11.010;2023-11-21T08:21:18;9.00;99.90
16999;DHT22;10211;49.476;11.010;2023-11-21T08:23:45;8.90;99.90
16999;DHT22;10211;49.476;11.010;2023-11-21T08:26:16;8.90;99.90
16999;DHT22;10211;49.476;11.010;2023-11-21T08:28:43;9.00;99.90
16999;DHT22;10211;49.476;11.010;2023-11-21T08:31:10;9.00;99.90
16999;DHT22;10211;49.476;11.010;2023-11-21T08:33:37;9.00;99.90
16999;DHT22;10211;49.476;11.010;2023-11-21T08:36:07;9.10;99.90
16999;DHT22;10211;49.476;11.010;2023-11-21T08:38:34;9.20;99.90
16999;DHT22;10211;49.476;11.010;2023-11-21T08:41:04;9.30;99.90
16999;DHT22;10211;49.476;11.010;2023-11-21T08:43:34;9.40;99.90
16999;DHT22;10211;49.476;11.010;2023-11-21T08:46:01;9.80;99.90
16999;DHT22;10211;49.476;11.010;2023-11-21T08:48:28;9.70;99.90
16999;DHT22;10211;49.476;11.010;2023-11-21T08:50:55;9.80;99.90
16999;DHT22;10211;49.476;11.010;2023-11-21T08:53:22;9.80;99.90
16999;DHT22;10211;49.476;11.010;2023-11-21T08:55:48;9.90;99.90
16999;DHT22;10211;49.476;11.010;2023-11-21T08:58:15;9.90;99.90
16999;DHT22;10211;49.476;11.010;2023-11-21T09:00:44;9.90;99.90
16999;DHT22;10211;49.476;11.010;2023-11-21T09:03:11;9.90;99.90
16999;DHT22;10211;49.476;11.010;2023-11-21T09:05:38;9.80;99.90
16999;DHT22;10211;49.476;11.010;2023-11-21T09:08:05;9.80;99.90
16999;DHT22;10211;49.476;11.010;2023-11-21T09:10:33;9.90;99.90
16999;DHT22;10211;49.476;11.010;2023-11-21T09:13:01;9.90;99.90
16999;DHT22;10211;49.476;11.010;2023-11-21T09:15:28;10.00;99.90
16999;DHT22;10211;49.476;11.010;2023-11-21T09:17:56;10.00;99.90
16999;DHT22;10211;49.476;11.010;2023-11-21T09:20:23;10.10;99.90
16999;DHT22;10211;49.476;11.010;2023-11-21T09:22:50;10.10;99.90
16999;DHT22;10211;49.476;11.010;2023-11-21T09:25:17;10.10;99.90
16999;DHT22;10211;49.476;11.010;2023-11-21T09:27:44;10.20;99.90
16999;DHT22;10211;49.476;11.010;2023-11-21T09:30:12;10.20;99.90
16999;DHT22;10211;49.476;11.010;2023-11-21T09:32:40;10.30;99.90
16999;DHT22;10211;49.476;11.010;2023-11-21T09:35:08;10.30;99.90
16999;DHT22;10211;49.476;11.010;2023-11-21T09:37:35;10.40;99.90
16999;DHT22;10211;49.476;11.010;2023-11-21T09:40:03;10.50;99.90
16999;DHT22;10211;49.476;11.010;2023-11-21T09:42:36;10.30;99.90
16999;DHT22;10211;49.476;11.010;2023-11-21T09:45:11;10.30;99.90
16999;DHT22;10211;49.476;11.010;2023-11-21T09:47:41;10.40;99.90
16999;DHT22;10211;49.476;11.010;2023-11-21T09:50:11;10.50;99.90
16999;DHT22;10211;49.476;11.010;2023-11-21T09:52:46;10.50;99.90
16999;DHT22;10211;49.476;11.010;2023-11-21T09:55:16;10.50;99.90
16999;DHT22;10211;49.476;11.010;2023-11-21T09:57:45;10.40;99.90
16999;DHT22;10211;49.476;11.010;2023-11-21T10:00:14;10.40;99.90
16999;DHT22;10211;49.476;11.010;2023-11-21T10:02:43;10.20;99.90
16999;DHT22;10211;49.476;11.010;2023-11-21T10:05:11;10.10;99.90
16999;DHT22;10211;49.476;11.010;2023-11-21T10:07:39;10.10;99.90
16999;DHT22;10211;49.476;11.010;2023-11-21T10:10:07;10.10;99.90
16999;DHT22;10211;49.476;11.010;2023-11-21T10:12:35;10.10;99.90
16999;DHT22;10211;49.476;11.010;2023-11-21T10:15:08;10.20;99.90
16999;DHT22;10211;49.476;11.010;2023-11-21T10:17:38;10.40;99.90
16999;DHT22;10211;49.476;11.010;2023-11-21T10:20:11;10.60;99.90
16999;DHT22;10211;49.476;11.010;2023-11-21T10:22:39;10.70;99.90
16999;DHT22;10211;49.476;11.010;2023-11-21T10:25:07;10.90;99.90
16999;DHT22;10211;49.476;11.010;2023-11-21T10:27:34;11.00;99.90
16999;DHT22;10211;49.476;11.010;2023-11-21T10:30:01;11.10;99.90
16999;DHT22;10211;49.476;11.010;2023-11-21T10:32:29;11.30;99.90
16999;DHT22;10211;49.476;11.010;2023-11-21T10:34:57;11.60;99.90
16999;DHT22;10211;49.476;11.010;2023-11-21T10:37:27;11.90;99.90
16999;DHT22;10211;49.476;11.010;2023-11-21T10:39:57;12.20;99.90
16999;DHT22;10211;49.476;11.010;2023-11-21T10:42:24;12.40;99.90
16999;DHT22;10211;49.476;11.010;2023-11-21T10:44:52;12.60;99.90
16999;DHT22;10211;49.476;11.010;2023-11-21T10:47:19;12.80;99.90
16999;DHT22;10211;49.476;11.010;2023-11-21T10:49:48;13.10;99.90
16999;DHT22;10211;49.476;11.010;2023-11-21T10:52:15;13.20;99.90
16999;DHT22;10211;49.476;11.010;2023-11-21T10:54:44;13.10;99.90
16999;DHT22;10211;49.476;11.010;2023-11-21T10:57:14;13.10;99.90
16999;DHT22;10211;49.476;11.010;2023-11-21T10:59:46;12.90;99.90
16999;DHT22;10211;49.476;11.010;2023-11-21T11:02:21;12.90;99.90
16999;DHT22;10211;49.476;11.010;2023-11-21T11:04:52;12.90;99.90
16999;DHT22;10211;49.476;11.010;2023-11-21T11:07:21;12.80;99.90
16999;DHT22;10211;49.476;11.010;2023-11-21T11:09:53;12.70;99.90
16999;DHT22;10211;49.476;11.010;2023-11-21T11:12:20;12.60;99.90
16999;DHT22;10211;49.476;11.010;2023-11-21T11:14:48;12.50;99.90
16999;DHT22;10211;49.476;11.010;2023-11-21T11:17:14;12.30;99.90
16999;DHT22;10211;49.476;11.010;2023-11-21T11:19:41;12.00;99.90
16999;DHT22;10211;49.476;11.010;2023-11-21T11:22:19;11.70;99.90
16999;DHT22;10211;49.476;11.010;2023-11-21T11:27:54;11.20;99.90
16999;DHT22;10211;49.476;11.010;2023-11-21T11:30:37;10.90;99.90
16999;DHT22;10211;49.476;11.010;2023-11-21T11:33:11;10.80;99.90
16999;DHT22;10211;49.476;11.010;2023-11-21T11:35:49;10.70;99.90
16999;DHT22;10211;49.476;11.010;2023-11-21T11:38:21;10.60;99.90
16999;DHT22;10211;49.476;11.010;2023-11-21T11:40:53;10.50;99.90
16999;DHT22;10211;49.476;11.010;2023-11-21T11:43:25;10.50;99.90
16999;DHT22;10211;49.476;11.010;2023-11-21T11:45:52;10.40;99.90
16999;DHT22;10211;49.476;11.010;2023-11-21T11:48:22;10.50;99.90
16999;DHT22;10211;49.476;11.010;2023-11-21T11:51:02;10.50;99.90
16999;DHT22;10211;49.476;11.010;2023-11-21T11:53:35;10.60;99.90
16999;DHT22;10211;49.476;11.010;2023-11-21T11:56:31;10.70;99.90
16999;DHT22;10211;49.476;11.010;2023-11-21T11:59:01;10.80;99.90
16999;DHT22;10211;49.476;11.010;2023-11-21T12:01:30;11.00;99.90
16999;DHT22;10211;49.476;11.010;2023-11-21T12:04:22;11.20;99.90
16999;DHT22;10211;49.476;11.010;2023-11-21T12:06:52;11.30;99.90
16999;DHT22;10211;49.476;11.010;2023-11-21T12:09:20;11.40;99.90
16999;DHT22;10211;49.476;11.010;2023-11-21T12:11:49;11.40;99.90
16999;DHT22;10211;49.476;11.010;2023-11-21T12:14:17;11.40;99.90
16999;DHT22;10211;49.476;11.010;2023-11-21T12:16:44;11.40;99.90
16999;DHT22;10211;49.476;11.010;2023-11-21T12:19:12;11.30;99.90
16999;DHT22;10211;49.476;11.010;2023-11-21T12:21:39;11.20;99.90
16999;DHT22;10211;49.476;11.010;2023-11-21T12:24:07;11.20;99.90
16999;DHT22;10211;49.476;11.010;2023-11-21T12:26:34;11.10;99.90
16999;DHT22;10211;49.476;11.010;2023-11-21T12:29:03;11.10;99.90
16999;DHT22;10211;49.476;11.010;2023-11-21T12:31:33;11.20;99.90
16999;DHT22;10211;49.476;11.010;2023-11-21T12:34:00;11.20;99.90
16999;DHT22;10211;49.476;11.010;2023-11-21T12:36:27;11.20;99.90
16999;DHT22;10211;49.476;11.010;2023-11-21T12:38:54;11.20;99.90
16999;DHT22;10211;49.476;11.010;2023-11-21T12:41:21;11.30;99.90
16999;DHT22;10211;49.476;11.010;2023-11-21T12:43:48;11.30;99.90
16999;DHT22;10211;49.476;11.010;2023-11-21T12:46:17;11.70;99.90
16999;DHT22;10211;49.476;11.010;2023-11-21T12:48:44;11.60;99.90
16999;DHT22;10211;49.476;11.010;2023-11-21T12:51:12;11.30;99.90
16999;DHT22;10211;49.476;11.010;2023-11-21T12:53:40;11.20;99.90
16999;DHT22;10211;49.476;11.010;2023-11-21T12:56:09;11.10;99.90
16999;DHT22;10211;49.476;11.010;2023-11-21T12:58:37;11.00;99.90
16999;DHT22;10211;49.476;11.010;2023-11-21T13:01:05;11.00;99.90
16999;DHT22;10211;49.476;11.010;2023-11-21T13:03:38;10.90;99.90
16999;DHT22;10211;49.476;11.010;2023-11-21T13:06:06;10.80;99.90
16999;DHT22;10211;49.476;11.010;2023-11-21T13:08:34;10.80;99.90
16999;DHT22;10211;49.476;11.010;2023-11-21T13:11:01;10.80;99.90
16999;DHT22;10211;49.476;11.010;2023-11-21T13:13:29;10.80;99.90
16999;DHT22;10211;49.476;11.010;2023-11-21T13:15:58;10.90;99.90
16999;DHT22;10211;49.476;11.010;2023-11-21T13:18:28;11.00;99.90
16999;DHT22;10211;49.476;11.010;2023-11-21T13:20:59;11.00;99.90
16999;DHT22;10211;49.476;11.010;2023-11-21T13:23:26;11.20;99.90
16999;DHT22;10211;49.476;11.010;2023-11-21T13:25:55;11.20;99.90
16999;DHT22;10211;49.476;11.010;2023-11-21T13:28:21;11.20;99.90
16999;DHT22;10211;49.476;11.010;2023-11-21T13:30:50;11.20;99.90
16999;DHT22;10211;49.476;11.010;2023-11-21T13:33:18;11.10;99.90
16999;DHT22;10211;49.476;11.010;2023-11-21T13:35:47;11.00;99.90
16999;DHT22;10211;49.476;11.010;2023-11-21T13:38:18;11.00;99.90
16999;DHT22;10211;49.476;11.010;2023-11-21T13:40:49;11.10;99.90
16999;DHT22;10211;49.476;11.010;2023-11-21T13:43:19;11.20;99.90
16999;DHT22;10211;49.476;11.010;2023-11-21T13:45:48;11.50;99.90
16999;DHT22;10211;49.476;11.010;2023-11-21T13:48:17;12.10;99.90
16999;DHT22;10211;49.476;11.010;2023-11-21T13:50:50;12.70;99.90
16999;DHT22;10211;49.476;11.010;2023-11-21T13:53:25;13.30;99.90
16999;DHT22;10211;49.476;11.010;2023-11-21T13:55:53;13.50;99.90
16999;DHT22;10211;49.476;11.010;2023-11-21T13:58:23;13.40;99.90
16999;DHT22;10211;49.476;11.010;2023-11-21T14:01:00;13.40;99.90
16999;DHT22;10211;49.476;11.010;2023-11-21T14:03:27;13.30;99.90
16999;DHT22;10211;49.476;11.010;2023-11-21T14:06:03;13.40;99.90
16999;DHT22;10211;49.476;11.010;2023-11-21T14:08:40;13.20;99.90
16999;DHT22;10211;49.476;11.010;2023-11-21T14:11:08;13.20;99.90
16999;DHT22;10211;49.476;11.010;2023-11-21T14:13:36;13.10;99.90
16999;DHT22;10211;49.476;11.010;2023-11-21T14:16:03;13.00;99.90
16999;DHT22;10211;49.476;11.010;2023-11-21T14:18:32;13.00;99.90
16999;DHT22;10211;49.476;11.010;2023-11-21T14:21:04;12.80;99.90
16999;DHT22;10211;49.476;11.010;2023-11-21T14:23:31;12.60;99.90
16999;DHT22;10211;49.476;11.010;2023-11-21T14:26:02;12.30;99.90
16999;DHT22;10211;49.476;11.010;2023-11-21T14:28:29;11.90;99.90
16999;DHT22;10211;49.476;11.010;2023-11-21T14:30:56;11.70;99.90
16999;DHT22;10211;49.476;11.010;2023-11-21T14:33:23;11.40;99.90
16999;DHT22;10211;49.476;11.010;2023-11-21T14:35:49;11.20;99.90
16999;DHT22;10211;49.476;11.010;2023-11-21T14:38:17;11.00;99.90
16999;DHT22;10211;49.476;11.010;2023-11-21T14:40:45;10.90;99.90
16999;DHT22;10211;49.476;11.010;2023-11-21T14:43:27;10.80;99.90
16999;DHT22;10211;49.476;11.010;2023-11-21T14:45:55;10.70;99.90
16999;DHT22;10211;49.476;11.010;2023-11-21T14:48:24;10.60;99.90
16999;DHT22;10211;49.476;11.010;2023-11-21T14:51:07;10.50;99.90
16999;DHT22;10211;49.476;11.010;2023-11-21T14:53:48;10.50;99.90
16999;DHT22;10211;49.476;11.010;2023-11-21T14:56:19;10.40;99.90
16999;DHT22;10211;49.476;11.010;2023-11-21T14:58:53;10.30;99.90
16999;DHT22;10211;49.476;11.010;2023-11-21T15:01:22;10.20;99.90
16999;DHT22;10211;49.476;11.010;2023-11-21T15:04:00;10.10;99.90
16999;DHT22;10211;49.476;11.010;2023-11-21T15:06:27;10.00;99.90
16999;DHT22;10211;49.476;11.010;2023-11-21T15:08:56;9.90;99.90
16999;DHT22;10211;49.476;11.010;2023-11-21T15:11:45;9.70;99.90
16999;DHT22;10211;49.476;11.010;2023-11-21T15:14:14;9.60;99.90
16999;DHT22;10211;49.476;11.010;2023-11-21T15:16:47;9.60;99.90
16999;DHT22;10211;49.476;11.010;2023-11-21T15:19:17;9.40;99.90
16999;DHT22;10211;49.476;11.010;2023-11-21T15:21:50;9.30;99.90
16999;DHT22;10211;49.476;11.010;2023-11-21T15:24:17;9.10;99.90
16999;DHT22;10211;49.476;11.010;2023-11-21T15:26:43;9.10;99.90
16999;DHT22;10211;49.476;11.010;2023-11-21T15:29:10;9.00;99.90
16999;DHT22;10211;49.476;11.010;2023-11-21T15:31:39;8.90;99.90
16999;DHT22;10211;49.476;11.010;2023-11-21T15:34:11;8.80;99.90
16999;DHT22;10211;49.476;11.010;2023-11-21T15:36:38;8.70;99.90